Back to Top

Language: 

My Weather Underground Personal Weather Station Historical Data with Graphs...

Delerius Weather Station Historical Data
Daily Summary for March 3, 2017 Units:  English    Metric   Both
« Previous Day
Next Day »
Daily Weekly Monthly Yearly Custom
  High: Low: Average:
Temperature: 45.2 °F 40.3 °F 42.1 °F
Dew Point: 44.7 °F 37.2 °F 40.3 °F
Humidity: 98 % 81 % 93 %
Wind Speed: 11.0 mph 0.0 mph 3.7 mph
Wind Gust: 20.0 mph - -
Wind:- - ESE
Pressure: 29.70 in 29.19 in -
Precipitation: 0.30 in    
Historical Graphs
 
 
Tabular Data for March 3, 2017
Time Temperature Dew Point Pressure Wind Wind Speed Wind Gust Humidity Rainfall Rate (Hourly) solar Conditions
00:05 42.6 °F 37.2 °F 29.70 in South 9.0 mph 16.0 mph 81 % 0.00 in 0 W/m2
00:15 42.8 °F 37.7 °F 29.70 in SW 10.0 mph 15.0 mph 82 % 0.00 in 0 W/m2
00:20 42.8 °F 37.7 °F 29.69 in SW 11.0 mph 11.0 mph 82 % 0.00 in 0 W/m2
00:25 42.8 °F 37.7 °F 29.69 in SW 10.0 mph 11.0 mph 82 % 0.00 in 0 W/m2
00:30 42.8 °F 38.0 °F 29.69 in South 9.0 mph 12.0 mph 83 % 0.00 in 0 W/m2
00:35 42.8 °F 38.0 °F 29.69 in SW 9.0 mph 12.0 mph 83 % 0.00 in 0 W/m2
00:40 42.8 °F 38.0 °F 29.69 in SSW 9.0 mph 9.0 mph 83 % 0.00 in 0 W/m2
00:50 42.9 °F 38.4 °F 29.68 in South 8.0 mph 8.0 mph 84 % 0.00 in 0 W/m2
00:55 42.9 °F 38.4 °F 29.68 in SSW 8.0 mph 8.0 mph 84 % 0.00 in 0 W/m2
01:00 42.9 °F 38.4 °F 29.68 in SW 8.0 mph 8.0 mph 84 % 0.00 in 0 W/m2
01:05 42.9 °F 38.4 °F 29.68 in SW 7.0 mph 20.0 mph 84 % 0.00 in 0 W/m2
01:10 42.9 °F 38.4 °F 29.68 in SSE 7.0 mph 7.0 mph 84 % 0.00 in 0 W/m2
01:20 42.9 °F 38.7 °F 29.67 in ESE 7.0 mph 7.0 mph 85 % 0.00 in 0 W/m2
01:30 42.0 °F 37.5 °F 29.68 in East 5.0 mph 20.0 mph 84 % 0.00 in 0 W/m2
01:35 41.5 °F 37.3 °F 29.67 in East 4.0 mph 20.0 mph 85 % 0.00 in 0 W/m2
01:40 41.2 °F 37.3 °F 29.67 in ESE 4.0 mph 20.0 mph 86 % 0.00 in 0 W/m2
01:45 41.1 °F 37.5 °F 29.67 in East 4.0 mph 20.0 mph 87 % 0.00 in 0 W/m2
01:50 41.0 °F 37.4 °F 29.67 in East 4.0 mph 4.0 mph 87 % 0.00 in 0 W/m2
01:55 41.0 °F 37.7 °F 29.67 in ESE 5.0 mph 8.0 mph 88 % 0.00 in 0 W/m2
02:00 41.2 °F 37.9 °F 29.66 in ESE 6.0 mph 6.0 mph 88 % 0.00 in 0 W/m2
02:05 41.4 °F 38.1 °F 29.66 in ESE 5.0 mph 20.0 mph 88 % 0.00 in 0 W/m2
02:10 41.6 °F 38.6 °F 29.66 in East 5.0 mph 20.0 mph 89 % 0.00 in 0 W/m2
02:15 41.8 °F 38.8 °F 29.66 in SE 6.0 mph 20.0 mph 89 % 0.00 in 0 W/m2
02:20 41.9 °F 38.6 °F 29.66 in ESE 5.0 mph 5.0 mph 88 % 0.00 in 0 W/m2
02:30 42.1 °F 38.8 °F 29.66 in East 5.0 mph 20.0 mph 88 % 0.00 in 0 W/m2
02:40 42.3 °F 39.0 °F 29.65 in ESE 2.0 mph 2.0 mph 88 % 0.00 in 0 W/m2
02:45 42.3 °F 39.0 °F 29.65 in ESE 1.0 mph 20.0 mph 88 % 0.00 in 0 W/m2
02:50 42.3 °F 39.0 °F 29.65 in ESE 1.0 mph 20.0 mph 88 % 0.00 in 0 W/m2
02:55 42.3 °F 39.0 °F 29.65 in ESE 2.0 mph 20.0 mph 88 % 0.00 in 0 W/m2
03:05 42.4 °F 39.4 °F 29.64 in ESE 3.0 mph 20.0 mph 89 % 0.00 in 0 W/m2
03:10 42.4 °F 39.4 °F 29.64 in East 2.0 mph 20.0 mph 89 % 0.00 in 0 W/m2
03:15 42.5 °F 39.5 °F 29.64 in ESE 2.0 mph 20.0 mph 89 % 0.00 in 0 W/m2
03:20 42.5 °F 39.5 °F 29.64 in ESE 2.0 mph 2.0 mph 89 % 0.00 in 0 W/m2
03:25 42.5 °F 39.5 °F 29.63 in ESE 1.0 mph 4.0 mph 89 % 0.00 in 0 W/m2
03:30 42.5 °F 39.5 °F 29.63 in ESE 1.0 mph 20.0 mph 89 % 0.00 in 0 W/m2
03:40 42.5 °F 39.5 °F 29.63 in SE 4.0 mph 20.0 mph 89 % 0.00 in 0 W/m2
03:45 42.5 °F 39.5 °F 29.63 in SE 4.0 mph 20.0 mph 89 % 0.00 in 0 W/m2
03:55 42.2 °F 39.2 °F 29.62 in SSE 4.0 mph 20.0 mph 89 % 0.00 in 0 W/m2
04:00 42.1 °F 39.1 °F 29.62 in SSE 5.0 mph 20.0 mph 89 % 0.00 in 0 W/m2
04:05 42.1 °F 39.1 °F 29.61 in South 5.0 mph 20.0 mph 89 % 0.00 in 0 W/m2
04:15 41.9 °F 39.2 °F 29.61 in South 6.0 mph 6.0 mph 90 % 0.00 in 0 W/m2
04:20 41.9 °F 39.2 °F 29.61 in South 6.0 mph 6.0 mph 90 % 0.00 in 0 W/m2
04:25 41.8 °F 39.1 °F 29.61 in SSW 5.0 mph 20.0 mph 90 % 0.00 in 0 W/m2
04:30 41.7 °F 39.0 °F 29.60 in SSW 4.0 mph 20.0 mph 90 % 0.00 in 0 W/m2
04:35 41.7 °F 39.0 °F 29.60 in SSW 3.0 mph 20.0 mph 90 % 0.00 in 0 W/m2
04:45 41.6 °F 38.9 °F 29.60 in SSW 2.0 mph 20.0 mph 90 % 0.00 in 0 W/m2
04:50 41.6 °F 38.9 °F 29.60 in SE 1.0 mph 1.0 mph 90 % 0.00 in 0 W/m2
04:55 41.5 °F 39.1 °F 29.59 in Calm   4.0 mph 91 % 0.00 in 0 W/m2
05:00 41.5 °F 39.1 °F 29.59 in NE 1.0 mph 1.0 mph 91 % 0.00 in 0 W/m2
05:05 41.4 °F 39.0 °F 29.59 in NE 2.0 mph 2.0 mph 91 % 0.00 in 0 W/m2
05:10 41.4 °F 39.0 °F 29.59 in ENE 2.0 mph 20.0 mph 91 % 0.00 in 0 W/m2
05:20 41.4 °F 39.0 °F 29.59 in NE 2.0 mph 2.0 mph 91 % 0.00 in 0 W/m2
05:30 41.2 °F 38.8 °F 29.59 in East 1.0 mph 20.0 mph 91 % 0.00 in 0 W/m2
05:35 41.1 °F 39.0 °F 29.59 in SE 3.0 mph 20.0 mph 92 % 0.00 in 0 W/m2
05:40 41.1 °F 39.0 °F 29.58 in SSE 4.0 mph 20.0 mph 92 % 0.00 in 0 W/m2
05:45 41.1 °F 39.0 °F 29.58 in SSW 5.0 mph 20.0 mph 92 % 0.00 in 0 W/m2
05:55 41.1 °F 39.0 °F 29.58 in SSW 8.0 mph 20.0 mph 92 % 0.00 in 0 W/m2
06:00 41.2 °F 39.1 °F 29.58 in South 9.0 mph 9.0 mph 92 % 0.00 in 0 W/m2
06:05 41.1 °F 39.0 °F 29.58 in SSW 8.0 mph 20.0 mph 92 % 0.00 in 0 W/m2
06:10 41.1 °F 39.0 °F 29.57 in SSW 7.0 mph 20.0 mph 92 % 0.00 in 0 W/m2
06:15 41.1 °F 39.0 °F 29.57 in SSW 7.0 mph 20.0 mph 92 % 0.00 in 0 W/m2
06:25 41.2 °F 39.1 °F 29.57 in SW 5.0 mph 20.0 mph 92 % 0.00 in 0 W/m2
06:30 41.2 °F 39.1 °F 29.57 in SSW 5.0 mph 5.0 mph 92 % 0.00 in 0 W/m2
06:40 41.2 °F 38.8 °F 29.56 in SSW 1.0 mph 1.0 mph 91 % 0.00 in 0 W/m2
06:45 41.2 °F 39.1 °F 29.56 in Calm   2.0 mph 92 % 0.00 in 0 W/m2
06:50 41.1 °F 38.7 °F 29.56 in SSE 1.0 mph 20.0 mph 91 % 0.00 in 0 W/m2
07:00 41.0 °F 38.9 °F 29.55 in SE 4.0 mph 20.0 mph 92 % 0.00 in 5 W/m2
07:05 40.9 °F 38.8 °F 29.55 in South 5.0 mph 20.0 mph 92 % 0.00 in 7 W/m2
07:10 40.9 °F 38.8 °F 29.56 in SSE 6.0 mph 6.0 mph 92 % 0.00 in 9 W/m2
07:15 40.9 °F 38.8 °F 29.56 in SSE 5.0 mph 20.0 mph 92 % 0.00 in 9 W/m2
07:20 40.8 °F 38.7 °F 29.56 in SE 5.0 mph 20.0 mph 92 % 0.00 in 11 W/m2
07:25 40.8 °F 38.7 °F 29.55 in ESE 3.0 mph 20.0 mph 92 % 0.00 in 11 W/m2
07:35 40.7 °F 38.6 °F 29.55 in SSE 2.0 mph 20.0 mph 92 % 0.00 in 18 W/m2
07:40 40.6 °F 38.5 °F 29.55 in SE 3.0 mph 20.0 mph 92 % 0.00 in 18 W/m2
07:45 40.6 °F 38.5 °F 29.55 in SE 4.0 mph 20.0 mph 92 % 0.00 in 18 W/m2
07:50 40.6 °F 38.5 °F 29.55 in SE 5.0 mph 20.0 mph 92 % 0.00 in 21 W/m2
07:55 40.6 °F 38.5 °F 29.55 in SE 4.0 mph 20.0 mph 92 % 0.00 in 23 W/m2
08:05 40.5 °F 38.4 °F 29.54 in ESE 3.0 mph 5.0 mph 92 % 0.00 in 30 W/m2
08:10 40.5 °F 38.6 °F 29.54 in East 3.0 mph 20.0 mph 93 % 0.00 in 32 W/m2
08:20 40.3 °F 38.4 °F 29.54 in East 4.0 mph 4.0 mph 93 % 0.00 in 39 W/m2
08:25 40.3 °F 38.4 °F 29.54 in ESE 3.0 mph 20.0 mph 93 % 0.00 in 44 W/m2
08:30 40.3 °F 38.4 °F 29.54 in ESE 3.0 mph 20.0 mph 93 % 0.00 in 44 W/m2
08:40 40.4 °F 38.5 °F 29.54 in SE 4.0 mph 4.0 mph 93 % 0.00 in 51 W/m2
08:45 40.4 °F 38.5 °F 29.54 in SE 4.0 mph 20.0 mph 93 % 0.00 in 53 W/m2
08:50 40.5 °F 38.6 °F 29.53 in SE 4.0 mph 20.0 mph 93 % 0.00 in 53 W/m2
08:55 40.5 °F 38.6 °F 29.53 in SE 3.0 mph 20.0 mph 93 % 0.00 in 58 W/m2
09:00 40.5 °F 38.6 °F 29.53 in SE 3.0 mph 3.0 mph 93 % 0.00 in 67 W/m2
09:05 40.5 °F 38.6 °F 29.52 in SE 2.0 mph 20.0 mph 93 % 0.00 in 81 W/m2
09:10 40.6 °F 38.7 °F 29.52 in SE 1.0 mph 20.0 mph 93 % 0.00 in 83 W/m2
09:15 40.6 °F 38.7 °F 29.52 in SE 2.0 mph 20.0 mph 93 % 0.00 in 69 W/m2
09:20 40.7 °F 38.8 °F 29.52 in SE 3.0 mph 20.0 mph 93 % 0.00 in 60 W/m2
09:25 40.7 °F 38.8 °F 29.52 in SE 4.0 mph 20.0 mph 93 % 0.00 in 67 W/m2
09:35 40.8 °F 38.9 °F 29.51 in SE 2.0 mph 20.0 mph 93 % 0.00 in 60 W/m2
09:40 40.7 °F 38.8 °F 29.51 in SE 4.0 mph 20.0 mph 93 % 0.00 in 63 W/m2
09:50 40.8 °F 38.9 °F 29.50 in SE 5.0 mph 5.0 mph 93 % 0.00 in 63 W/m2
09:55 40.9 °F 38.8 °F 29.50 in SSE 4.0 mph 20.0 mph 92 % 0.00 in 74 W/m2
10:00 41.0 °F 38.9 °F 29.50 in SE 4.0 mph 20.0 mph 92 % 0.00 in 98 W/m2
10:05 41.0 °F 38.9 °F 29.50 in SE 4.0 mph 20.0 mph 92 % 0.00 in 109 W/m2
10:10 41.2 °F 39.3 °F 29.50 in ESE 4.0 mph 20.0 mph 93 % 0.00 in 104 W/m2
10:20 41.5 °F 39.3 °F 29.50 in ESE 4.0 mph 20.0 mph 92 % 0.00 in 95 W/m2
10:25 41.6 °F 39.4 °F 29.49 in ESE 4.0 mph 20.0 mph 92 % 0.00 in 98 W/m2
10:30 41.6 °F 39.4 °F 29.49 in SE 6.0 mph 6.0 mph 92 % 0.00 in 97 W/m2
10:35 41.7 °F 39.5 °F 29.49 in ESE 6.0 mph 20.0 mph 92 % 0.00 in 105 W/m2
10:40 41.8 °F 39.6 °F 29.48 in SE 5.0 mph 20.0 mph 92 % 0.00 in 113 W/m2
10:45 41.9 °F 39.7 °F 29.48 in ESE 6.0 mph 20.0 mph 92 % 0.00 in 102 W/m2
10:55 42.0 °F 39.8 °F 29.48 in SE 6.0 mph 20.0 mph 92 % 0.00 in 90 W/m2
11:00 42.0 °F 39.8 °F 29.48 in SE 7.0 mph 7.0 mph 92 % 0.00 in 74 W/m2
11:10 42.0 °F 39.8 °F 29.47 in SE 7.0 mph 7.0 mph 92 % 0.00 in 81 W/m2
11:15 42.0 °F 39.8 °F 29.47 in SSE 7.0 mph 8.0 mph 92 % 0.00 in 88 W/m2
11:20 42.0 °F 40.1 °F 29.47 in SE 8.0 mph 8.0 mph 93 % 0.00 in 90 W/m2
11:30 41.9 °F 40.0 °F 29.46 in SSE 7.0 mph 20.0 mph 93 % 0.00 in 86 W/m2
11:35 41.9 °F 40.0 °F 29.46 in ESE 7.0 mph 20.0 mph 93 % 0.00 in 74 W/m2
11:40 41.9 °F 40.0 °F 29.45 in SE 6.0 mph 20.0 mph 93 % 0.00 in 69 W/m2
11:45 41.9 °F 40.3 °F 29.45 in SE 6.0 mph 20.0 mph 94 % 0.00 in 83 W/m2
11:50 42.0 °F 40.4 °F 29.45 in ESE 6.0 mph 6.0 mph 94 % 0.00 in 90 W/m2
12:00 42.1 °F 40.5 °F 29.44 in East 5.0 mph 20.0 mph 94 % 0.00 in 77 W/m2
12:05 42.1 °F 40.5 °F 29.43 in ESE 6.0 mph 20.0 mph 94 % 0.00 in 79 W/m2
12:10 42.1 °F 40.5 °F 29.43 in ESE 7.0 mph 20.0 mph 94 % 0.00 in 83 W/m2
12:15 42.1 °F 40.5 °F 29.42 in East 8.0 mph 20.0 mph 94 % 0.00 in 120 W/m2
12:20 42.1 °F 40.5 °F 29.42 in East 8.0 mph 8.0 mph 94 % 0.00 in 102 W/m2
12:25 42.2 °F 40.6 °F 29.42 in ESE 8.0 mph 11.0 mph 94 % 0.00 in 111 W/m2
12:35 42.3 °F 40.7 °F 29.41 in ESE 8.0 mph 20.0 mph 94 % 0.00 in 102 W/m2
12:45 42.1 °F 40.5 °F 29.41 in ESE 9.0 mph 9.0 mph 94 % 0.00 in 81 W/m2
12:50 42.1 °F 40.5 °F 29.40 in SE 8.0 mph 20.0 mph 94 % 0.00 in 81 W/m2
12:55 42.0 °F 40.4 °F 29.40 in ESE 8.0 mph 20.0 mph 94 % 0.00 in 69 W/m2
13:00 42.1 °F 40.5 °F 29.40 in SE 7.0 mph 20.0 mph 94 % 0.00 in 70 W/m2
13:10 42.1 °F 40.8 °F 29.39 in ESE 7.0 mph 20.0 mph 95 % 0.05 in 70 W/m2
13:15 42.0 °F 40.7 °F 29.39 in East 7.0 mph 20.0 mph 95 % 0.05 in 83 W/m2
13:20 42.1 °F 40.8 °F 29.38 in SE 7.0 mph 7.0 mph 95 % 0.05 in 76 W/m2
13:25 42.1 °F 40.8 °F 29.38 in ESE 7.0 mph 20.0 mph 95 % 0.05 in 65 W/m2
13:30 42.0 °F 40.7 °F 29.38 in ESE 7.0 mph 20.0 mph 95 % 0.05 in 69 W/m2
13:40 42.0 °F 40.7 °F 29.37 in East 7.0 mph 7.0 mph 95 % 0.06 in 60 W/m2
13:45 42.0 °F 40.7 °F 29.37 in ESE 8.0 mph 10.0 mph 95 % 0.05 in 54 W/m2
13:50 41.9 °F 40.6 °F 29.37 in SE 8.0 mph 20.0 mph 95 % 0.05 in 56 W/m2
13:55 42.0 °F 40.7 °F 29.37 in ESE 7.0 mph 20.0 mph 95 % 0.05 in 42 W/m2
14:05 42.0 °F 40.7 °F 29.36 in ESE 7.0 mph 20.0 mph 95 % 0.05 in 47 W/m2
14:10 42.1 °F 40.8 °F 29.36 in ESE 7.0 mph 7.0 mph 95 % 0.04 in 35 W/m2
14:20 42.1 °F 41.0 °F 29.35 in ESE 7.0 mph 20.0 mph 96 % 0.09 in 40 W/m2
14:25 42.1 °F 41.0 °F 29.35 in ESE 6.0 mph 20.0 mph 96 % 0.08 in 49 W/m2
14:30 42.1 °F 41.0 °F 29.35 in ESE 6.0 mph 20.0 mph 96 % 0.13 in 39 W/m2
14:35 42.2 °F 41.1 °F 29.35 in ESE 6.0 mph 20.0 mph 96 % 0.08 in 32 W/m2
14:40 42.1 °F 41.0 °F 29.34 in East 6.0 mph 6.0 mph 96 % 0.08 in 32 W/m2
14:50 42.2 °F 41.1 °F 29.34 in ENE 5.0 mph 20.0 mph 96 % 0.05 in 32 W/m2
14:55 42.1 °F 41.0 °F 29.34 in ESE 6.0 mph 20.0 mph 96 % 0.06 in 28 W/m2
15:00 42.2 °F 41.1 °F 29.33 in East 5.0 mph 5.0 mph 96 % 0.06 in 25 W/m2
15:05 42.2 °F 41.1 °F 29.33 in ENE 5.0 mph 20.0 mph 96 % 0.06 in 21 W/m2
15:10 42.2 °F 41.1 °F 29.33 in East 5.0 mph 5.0 mph 96 % 0.05 in 23 W/m2
15:20 42.2 °F 41.1 °F 29.33 in NE 5.0 mph 20.0 mph 96 % 0.05 in 21 W/m2
15:25 42.2 °F 41.1 °F 29.33 in ESE 5.0 mph 20.0 mph 96 % 0.04 in 25 W/m2
15:30 42.2 °F 41.1 °F 29.32 in East 4.0 mph 4.0 mph 96 % 0.04 in 23 W/m2
15:40 42.3 °F 41.5 °F 29.32 in East 4.0 mph 20.0 mph 97 % 0.06 in 21 W/m2
15:45 42.3 °F 41.5 °F 29.32 in ENE 4.0 mph 20.0 mph 97 % 0.06 in 18 W/m2
15:55 42.3 °F 41.2 °F 29.31 in ESE 4.0 mph 20.0 mph 96 % 0.05 in 21 W/m2
16:00 42.3 °F 41.2 °F 29.31 in East 3.0 mph 20.0 mph 96 % 0.05 in 21 W/m2
16:05 42.3 °F 41.2 °F 29.31 in SE 3.0 mph 20.0 mph 96 % 0.05 in 18 W/m2
16:10 42.3 °F 41.5 °F 29.30 in ENE 3.0 mph 3.0 mph 97 % 0.04 in 16 W/m2
16:15 42.4 °F 41.6 °F 29.30 in ENE 3.0 mph 20.0 mph 97 % 0.04 in 14 W/m2
16:20 42.3 °F 41.5 °F 29.30 in ENE 2.0 mph 20.0 mph 97 % 0.05 in 14 W/m2
16:30 42.4 °F 41.6 °F 29.30 in East 3.0 mph 3.0 mph 97 % 0.05 in 14 W/m2
16:35 42.4 °F 41.6 °F 29.30 in ENE 2.0 mph 4.0 mph 97 % 0.06 in 12 W/m2
16:40 42.4 °F 41.6 °F 29.30 in ENE 2.0 mph 2.0 mph 97 % 0.06 in 11 W/m2
16:45 42.4 °F 41.6 °F 29.29 in East 2.0 mph 20.0 mph 97 % 0.05 in 12 W/m2
16:55 42.5 °F 41.7 °F 29.29 in ENE 3.0 mph 20.0 mph 97 % 0.06 in 12 W/m2
17:00 42.5 °F 41.7 °F 29.29 in NE 3.0 mph 20.0 mph 97 % 0.06 in 9 W/m2
17:10 42.5 °F 41.7 °F 29.28 in ENE 3.0 mph 3.0 mph 97 % 0.04 in 11 W/m2
17:15 42.5 °F 41.7 °F 29.28 in NE 3.0 mph 6.0 mph 97 % 0.00 in 9 W/m2
17:20 42.5 °F 41.7 °F 29.28 in NE 4.0 mph 20.0 mph 97 % 0.00 in 5 W/m2
17:25 42.5 °F 41.7 °F 29.28 in ENE 4.0 mph 20.0 mph 97 % 0.00 in 0 W/m2
17:35 42.5 °F 41.7 °F 29.27 in ENE 3.0 mph 20.0 mph 97 % 0.00 in 0 W/m2
17:40 42.5 °F 41.7 °F 29.27 in NE 3.0 mph 20.0 mph 97 % 0.00 in 0 W/m2
17:45 42.5 °F 41.7 °F 29.27 in NE 4.0 mph 20.0 mph 97 % 0.00 in 0 W/m2
17:50 42.5 °F 41.7 °F 29.27 in ENE 3.0 mph 3.0 mph 97 % 0.00 in 0 W/m2
17:55 42.5 °F 41.7 °F 29.27 in ENE 2.0 mph 20.0 mph 97 % 0.00 in 0 W/m2
18:00 42.5 °F 41.7 °F 29.27 in NE 2.0 mph 20.0 mph 97 % 0.00 in 0 W/m2
18:10 42.5 °F 41.7 °F 29.27 in NE 2.0 mph 20.0 mph 97 % 0.00 in 0 W/m2
18:15 42.5 °F 41.7 °F 29.27 in ENE 2.0 mph 20.0 mph 97 % 0.00 in 0 W/m2
18:20 42.5 °F 41.7 °F 29.26 in NE 2.0 mph 20.0 mph 97 % 0.00 in 0 W/m2
18:30 42.5 °F 41.7 °F 29.26 in East 1.0 mph 20.0 mph 97 % 0.00 in 0 W/m2
18:35 42.5 °F 41.7 °F 29.26 in East 1.0 mph 20.0 mph 97 % 0.00 in 0 W/m2
18:45 42.5 °F 41.7 °F 29.25 in ENE 2.0 mph 20.0 mph 97 % 0.00 in 0 W/m2
18:50 42.6 °F 41.8 °F 29.25 in NE 2.0 mph 2.0 mph 97 % 0.00 in 0 W/m2
18:55 42.6 °F 41.8 °F 29.25 in NE 1.0 mph 20.0 mph 97 % 0.00 in 0 W/m2
19:00 42.6 °F 41.8 °F 29.25 in Calm   20.0 mph 97 % 0.00 in 0 W/m2
19:05 42.6 °F 41.8 °F 29.25 in Calm   20.0 mph 97 % 0.00 in 0 W/m2
19:15 42.6 °F 41.8 °F 29.25 in Calm   20.0 mph 97 % 0.00 in 0 W/m2
19:20 42.6 °F 41.8 °F 29.25 in Calm   20.0 mph 97 % 0.00 in 0 W/m2
19:25 42.7 °F 41.9 °F 29.24 in Calm   20.0 mph 97 % 0.00 in 0 W/m2
19:30 42.7 °F 42.2 °F 29.24 in Calm   20.0 mph 98 % 0.00 in 0 W/m2
19:35 42.7 °F 42.2 °F 29.25 in Calm   20.0 mph 98 % 0.00 in 0 W/m2
19:40 42.7 °F 42.2 °F 29.25 in Calm   20.0 mph 98 % 0.04 in 0 W/m2
19:50 42.8 °F 42.3 °F 29.24 in Calm   20.0 mph 98 % 0.05 in 0 W/m2
19:55 42.8 °F 42.3 °F 29.24 in Calm   20.0 mph 98 % 0.05 in 0 W/m2
20:05 42.8 °F 42.3 °F 29.24 in Calm   20.0 mph 98 % 0.05 in 0 W/m2
20:10 42.9 °F 42.4 °F 29.24 in Calm   20.0 mph 98 % 0.05 in 0 W/m2
20:15 42.9 °F 42.4 °F 29.24 in Calm   20.0 mph 98 % 0.04 in 0 W/m2
20:25 42.9 °F 42.4 °F 29.23 in Calm   20.0 mph 98 % 0.00 in 0 W/m2
20:30 43.0 °F 42.5 °F 29.23 in Calm   20.0 mph 98 % 0.00 in 0 W/m2
20:35 42.9 °F 42.4 °F 29.23 in Calm   20.0 mph 98 % 0.00 in 0 W/m2
20:40 42.9 °F 42.4 °F 29.23 in Calm   20.0 mph 98 % 0.04 in 0 W/m2
20:45 42.9 °F 42.4 °F 29.23 in Calm   20.0 mph 98 % 0.04 in 0 W/m2
20:55 42.9 °F 42.4 °F 29.23 in Calm   20.0 mph 98 % 0.00 in 0 W/m2
21:00 42.9 °F 42.4 °F 29.22 in Calm   20.0 mph 98 % 0.00 in 0 W/m2
21:10 42.9 °F 42.4 °F 29.22 in Calm   20.0 mph 98 % 0.00 in 0 W/m2
21:15 42.9 °F 42.4 °F 29.22 in Calm   20.0 mph 98 % 0.00 in 0 W/m2
21:20 42.9 °F 42.4 °F 29.22 in Calm   20.0 mph 98 % 0.00 in 0 W/m2
21:30 42.8 °F 42.0 °F 29.22 in Calm   20.0 mph 97 % 0.00 in 0 W/m2
21:35 42.8 °F 42.0 °F 29.22 in Calm   20.0 mph 97 % 0.00 in 0 W/m2
21:40 42.7 °F 41.9 °F 29.22 in Calm   20.0 mph 97 % 0.00 in 0 W/m2
21:45 42.7 °F 41.9 °F 29.22 in Calm   20.0 mph 97 % 0.00 in 0 W/m2
21:50 42.7 °F 41.9 °F 29.21 in Calm   20.0 mph 97 % 0.00 in 0 W/m2
21:55 42.7 °F 42.2 °F 29.21 in Calm   20.0 mph 98 % 0.00 in 0 W/m2
22:05 42.7 °F 42.2 °F 29.21 in Calm   20.0 mph 98 % 0.00 in 0 W/m2
22:10 42.7 °F 42.2 °F 29.21 in Calm   20.0 mph 98 % 0.00 in 0 W/m2
22:15 42.7 °F 42.2 °F 29.21 in Calm   20.0 mph 98 % 0.00 in 0 W/m2
22:20 42.7 °F 42.2 °F 29.21 in Calm   20.0 mph 98 % 0.00 in 0 W/m2
22:30 42.8 °F 42.3 °F 29.20 in Calm   20.0 mph 98 % 0.00 in 0 W/m2
22:40 42.9 °F 42.4 °F 29.20 in Calm   20.0 mph 98 % 0.00 in 0 W/m2
22:45 43.0 °F 42.5 °F 29.20 in Calm   20.0 mph 98 % 0.00 in 0 W/m2
22:50 43.1 °F 42.6 °F 29.20 in Calm   20.0 mph 98 % 0.00 in 0 W/m2
23:00 43.5 °F 43.0 °F 29.20 in ENE 1.0 mph 20.0 mph 98 % 0.00 in 0 W/m2
23:10 44.1 °F 43.6 °F 29.20 in SE 2.0 mph 20.0 mph 98 % 0.00 in 0 W/m2
23:15 44.3 °F 43.8 °F 29.19 in SE 2.0 mph 20.0 mph 98 % 0.00 in 0 W/m2
23:20 44.4 °F 43.9 °F 29.19 in SE 2.0 mph 2.0 mph 98 % 0.00 in 0 W/m2
23:25 44.5 °F 44.0 °F 29.19 in SE 1.0 mph 4.0 mph 98 % 0.00 in 0 W/m2
23:30 44.7 °F 44.2 °F 29.19 in SE 2.0 mph 20.0 mph 98 % 0.00 in 0 W/m2
23:35 44.8 °F 44.3 °F 29.19 in SE 2.0 mph 20.0 mph 98 % 0.00 in 0 W/m2
23:45 45.1 °F 44.6 °F 29.19 in SE 1.0 mph 20.0 mph 98 % 0.00 in 0 W/m2
23:50 45.1 °F 44.6 °F 29.19 in SE 2.0 mph 20.0 mph 98 % 0.00 in 0 W/m2
23:55 45.2 °F 44.7 °F 29.19 in SE 2.0 mph 20.0 mph 98 % 0.00 in 0 W/m2
Delerius-Weather
Compliments of Weather Underground - 2 mb

Data updates at regular intervals.